createdAt,value
2018-08-04T00:01:29.641Z,46.40
2018-08-04T00:03:57.680Z,47.44
2018-08-04T00:06:25.699Z,47.11
2018-08-04T00:08:53.732Z,46.96
2018-08-04T00:11:21.782Z,47.69
2018-08-04T00:13:49.956Z,47.31
2018-08-04T00:16:17.988Z,47.34
2018-08-04T00:18:46.021Z,47.81
2018-08-04T00:21:14.059Z,47.83
2018-08-04T00:23:42.072Z,47.73
2018-08-04T00:26:10.108Z,48.86
2018-08-04T00:28:38.113Z,48.26
2018-08-04T00:31:06.140Z,48.00
2018-08-04T00:33:34.170Z,48.81
2018-08-04T00:36:02.198Z,48.22
2018-08-04T00:38:30.245Z,48.71
2018-08-04T00:40:58.276Z,47.95
2018-08-04T00:43:26.299Z,48.72
2018-08-04T00:45:54.336Z,48.32
2018-08-04T00:48:22.425Z,48.48
2018-08-04T00:50:50.449Z,47.97
2018-08-04T00:53:18.474Z,48.36
2018-08-04T00:55:46.503Z,48.84
2018-08-04T00:58:14.516Z,49.02
2018-08-04T01:00:42.543Z,48.82
2018-08-04T01:03:10.564Z,49.46
2018-08-04T01:05:38.610Z,48.66
2018-08-04T01:08:06.617Z,48.94
2018-08-04T01:10:34.637Z,49.67
2018-08-04T01:13:02.665Z,49.68
2018-08-04T01:15:30.683Z,48.90
2018-08-04T01:17:58.697Z,48.71
2018-08-04T01:20:26.717Z,48.56
2018-08-04T01:22:54.773Z,49.55
2018-08-04T01:25:22.971Z,49.01
2018-08-04T01:27:50.981Z,49.67
2018-08-04T01:30:19.005Z,48.76
2018-08-04T01:32:47.066Z,49.09
2018-08-04T01:35:15.398Z,49.73
2018-08-04T01:37:43.421Z,48.92
2018-08-04T01:40:11.448Z,49.49
2018-08-04T01:42:39.500Z,49.88
2018-08-04T01:45:07.560Z,49.89
2018-08-04T01:47:35.593Z,49.27
2018-08-04T01:50:03.639Z,49.22
2018-08-04T01:52:31.664Z,49.86
2018-08-04T01:54:59.728Z,50.12
2018-08-04T01:57:27.759Z,49.25
2018-08-04T01:59:55.773Z,49.70
2018-08-04T02:02:23.786Z,49.69
2018-08-04T02:04:51.810Z,50.37
2018-08-04T02:07:20.075Z,49.64
2018-08-04T02:09:48.050Z,50.76
2018-08-04T02:12:16.144Z,50.68
2018-08-04T02:14:50.853Z,50.80
2018-08-04T02:17:18.881Z,50.46
2018-08-04T02:19:46.898Z,50.92
2018-08-04T02:22:14.967Z,51.31
2018-08-04T02:24:43.841Z,50.83
2018-08-04T02:27:11.864Z,50.27
2018-08-04T02:29:39.905Z,51.10
2018-08-04T02:32:07.945Z,50.64
2018-08-04T02:34:35.981Z,50.63
2018-08-04T02:37:04.717Z,50.34
2018-08-04T02:39:32.762Z,51.06
2018-08-04T02:42:00.785Z,51.26
2018-08-04T02:44:28.873Z,50.74
2018-08-04T02:46:56.904Z,51.10
2018-08-04T02:49:24.949Z,51.29
2018-08-04T02:51:53.004Z,51.55
2018-08-04T02:54:21.024Z,51.20
2018-08-04T02:56:49.048Z,51.62
2018-08-04T02:59:17.078Z,51.81
2018-08-04T03:01:45.120Z,52.53
2018-08-04T03:04:13.141Z,52.27
2018-08-04T03:06:41.178Z,53.19
2018-08-04T03:09:10.743Z,52.90
2018-08-04T03:11:38.828Z,53.03
2018-08-04T03:14:06.924Z,52.54
2018-08-04T03:16:34.952Z,52.40
2018-08-04T03:19:02.985Z,52.89
2018-08-04T03:21:31.704Z,52.56
2018-08-04T03:23:59.729Z,53.76
2018-08-04T03:26:27.859Z,53.19
2018-08-04T03:28:55.977Z,53.10
2018-08-04T03:31:24.012Z,54.29
2018-08-04T03:33:52.028Z,53.78
2018-08-04T03:36:20.071Z,53.63
2018-08-04T03:38:48.093Z,54.16
2018-08-04T03:41:16.692Z,53.84
2018-08-04T03:43:44.704Z,53.53
2018-08-04T03:46:12.733Z,53.39
2018-08-04T03:48:40.749Z,53.45
2018-08-04T03:51:08.782Z,53.84
2018-08-04T03:53:36.806Z,54.23
2018-08-04T03:56:04.832Z,54.05
2018-08-04T03:58:32.863Z,53.75
2018-08-04T04:01:00.904Z,54.33
2018-08-04T04:03:28.929Z,54.15
2018-08-04T04:05:56.960Z,54.58
2018-08-04T04:08:24.998Z,54.74
2018-08-04T04:10:53.029Z,53.87
2018-08-04T04:13:21.457Z,54.77
2018-08-04T04:15:49.486Z,54.76
2018-08-04T04:18:17.504Z,54.24
2018-08-04T04:20:45.526Z,54.75
2018-08-04T04:23:13.546Z,54.44
2018-08-04T04:25:41.578Z,54.78
2018-08-04T04:28:09.593Z,55.38
2018-08-04T04:30:37.624Z,54.82
2018-08-04T04:33:05.822Z,55.08
2018-08-04T04:35:33.844Z,55.18
2018-08-04T04:38:01.887Z,55.26
2018-08-04T04:40:29.897Z,55.14
2018-08-04T04:42:57.932Z,55.57
2018-08-04T04:45:25.949Z,55.49
2018-08-04T04:47:53.981Z,54.99
2018-08-04T04:50:22.021Z,55.65
2018-08-04T04:52:50.172Z,55.23
2018-08-04T04:55:18.374Z,55.33
2018-08-04T04:57:46.413Z,55.87
2018-08-04T05:00:14.433Z,55.36
2018-08-04T05:02:42.567Z,55.52
2018-08-04T05:05:10.625Z,55.74
2018-08-04T05:07:38.705Z,55.00
2018-08-04T05:10:07.022Z,55.66
2018-08-04T05:12:35.282Z,55.71
2018-08-04T05:15:03.337Z,56.29
2018-08-04T05:17:31.361Z,56.24
2018-08-04T05:19:59.429Z,56.29
2018-08-04T05:22:27.446Z,56.02
2018-08-04T05:24:55.485Z,56.02
2018-08-04T05:27:23.513Z,55.69
2018-08-04T05:29:51.553Z,55.75
2018-08-04T05:32:19.624Z,56.50
2018-08-04T05:34:47.653Z,56.31
2018-08-04T05:37:15.688Z,56.80
2018-08-04T05:39:43.716Z,57.22
2018-08-04T05:42:11.745Z,56.65
2018-08-04T05:44:39.785Z,56.90
2018-08-04T05:47:07.802Z,57.10
2018-08-04T05:49:35.832Z,57.64
2018-08-04T05:52:04.563Z,57.00
2018-08-04T05:54:32.581Z,57.77
2018-08-04T05:57:00.624Z,57.28
2018-08-04T05:59:28.648Z,58.05
2018-08-04T06:01:56.696Z,57.77
2018-08-04T06:04:24.752Z,57.85
2018-08-04T06:06:52.789Z,57.49
2018-08-04T06:09:20.811Z,58.14
2018-08-04T06:11:48.862Z,57.79
2018-08-04T06:14:16.898Z,57.26
2018-08-04T06:16:44.939Z,57.29
2018-08-04T06:19:12.981Z,57.58
2018-08-04T06:21:41.010Z,57.36
2018-08-04T06:24:09.042Z,58.03
2018-08-04T06:26:37.072Z,58.14
2018-08-04T06:29:05.251Z,58.21
2018-08-04T06:31:33.278Z,57.76
2018-08-04T06:34:01.311Z,56.53
2018-08-04T06:36:29.541Z,57.12
2018-08-04T06:38:57.588Z,56.00
2018-08-04T06:41:25.613Z,56.15
2018-08-04T06:44:00.024Z,54.66
2018-08-04T06:46:28.051Z,55.11
2018-08-04T06:48:56.066Z,54.59
2018-08-04T06:51:24.133Z,53.79
2018-08-04T06:53:52.157Z,53.60
2018-08-04T06:56:20.182Z,52.69
2018-08-04T06:58:48.201Z,51.85
2018-08-04T07:01:16.231Z,50.18
2018-08-04T07:03:44.420Z,49.92
2018-08-04T07:06:12.452Z,49.58
2018-08-04T07:08:40.477Z,48.52
2018-08-04T07:11:08.508Z,47.59
2018-08-04T07:13:36.557Z,46.44
2018-08-04T07:16:05.319Z,46.12
2018-08-04T07:18:33.353Z,45.53
2018-08-04T07:21:01.392Z,45.71
2018-08-04T07:23:29.435Z,45.15
2018-08-04T07:25:57.464Z,44.26
2018-08-04T07:28:25.653Z,44.58
2018-08-04T07:30:53.700Z,44.37
2018-08-04T07:33:21.728Z,43.26
2018-08-04T07:35:49.752Z,42.11
2018-08-04T07:38:17.945Z,42.38
2018-08-04T07:40:45.989Z,42.15
2018-08-04T07:43:14.012Z,42.37
2018-08-04T07:45:42.045Z,42.18
2018-08-04T07:48:10.196Z,41.88
2018-08-04T07:50:38.235Z,41.39
2018-08-04T07:53:06.924Z,41.49
2018-08-04T07:55:34.968Z,40.51
2018-08-04T07:58:03.128Z,39.97
2018-08-04T08:00:31.304Z,39.19
2018-08-04T08:02:59.320Z,40.13
2018-08-04T08:05:27.345Z,39.76
2018-08-04T08:07:55.384Z,39.80
2018-08-04T08:10:23.526Z,39.71
2018-08-04T08:12:51.749Z,38.32
2018-08-04T08:15:19.784Z,38.95
2018-08-04T08:17:47.894Z,37.82
2018-08-04T08:20:15.946Z,38.47
2018-08-04T08:22:44.636Z,37.77
2018-08-04T08:25:12.680Z,38.04
2018-08-04T08:27:40.941Z,38.39
2018-08-04T08:30:13.201Z,38.11
2018-08-04T08:32:41.493Z,38.18
2018-08-04T08:35:10.103Z,38.08
2018-08-04T08:37:38.132Z,37.65
2018-08-04T08:40:06.770Z,38.31
2018-08-04T08:42:34.800Z,36.67
2018-08-04T08:45:02.845Z,36.61
2018-08-04T08:47:31.305Z,37.04
2018-08-04T08:49:59.321Z,37.28
2018-08-04T08:52:27.351Z,34.93
2018-08-04T08:54:55.524Z,35.57
2018-08-04T08:57:23.601Z,35.18
2018-08-04T08:59:51.632Z,36.00
2018-08-04T09:02:19.664Z,34.01
2018-08-04T09:04:47.694Z,34.70
2018-08-04T09:07:15.741Z,35.39
2018-08-04T09:09:43.758Z,34.73
2018-08-04T09:12:11.780Z,34.96
2018-08-04T09:14:39.811Z,35.45
2018-08-04T09:17:07.896Z,34.54
2018-08-04T09:19:35.939Z,34.43
2018-08-04T09:22:04.905Z,33.99
2018-08-04T09:24:32.941Z,34.47
2018-08-04T09:27:00.972Z,34.54
2018-08-04T09:29:28.989Z,33.94
2018-08-04T09:31:57.029Z,33.66
2018-08-04T09:34:25.071Z,33.31
2018-08-04T09:36:53.280Z,33.99
2018-08-04T09:39:21.320Z,33.35
2018-08-04T09:41:49.357Z,33.58
2018-08-04T09:44:17.395Z,32.49
2018-08-04T09:46:45.623Z,33.15
2018-08-04T09:49:13.708Z,33.01
2018-08-04T09:51:41.728Z,32.14
2018-08-04T09:54:09.769Z,33.33
2018-08-04T09:56:37.812Z,32.21
2018-08-04T09:59:05.853Z,31.69
2018-08-04T10:01:37.269Z,32.30
2018-08-04T10:04:05.469Z,32.04
2018-08-04T10:06:33.508Z,32.23
2018-08-04T10:09:01.561Z,32.11
2018-08-04T10:11:29.600Z,31.91
2018-08-04T10:13:57.644Z,32.73
2018-08-04T10:16:25.689Z,32.63
2018-08-04T10:18:54.614Z,31.98
2018-08-04T10:21:22.672Z,33.01
2018-08-04T10:23:50.708Z,32.73
2018-08-04T10:26:18.748Z,33.45
2018-08-04T10:28:46.786Z,33.39
2018-08-04T10:31:14.830Z,32.25
2018-08-04T10:33:43.019Z,32.37
2018-08-04T10:36:11.055Z,33.12
2018-08-04T10:38:39.119Z,33.16
2018-08-04T10:41:07.117Z,32.29
2018-08-04T10:43:35.149Z,31.98
2018-08-04T10:46:03.183Z,33.01
2018-08-04T10:48:31.862Z,31.52
2018-08-04T10:50:59.910Z,32.45
2018-08-04T10:53:27.939Z,31.99
2018-08-04T10:55:55.958Z,32.38
2018-08-04T10:58:24.003Z,33.02
2018-08-04T11:00:52.036Z,32.49
2018-08-04T11:03:20.093Z,32.73
2018-08-04T11:05:48.158Z,32.65
2018-08-04T11:08:16.264Z,32.72
2018-08-04T11:10:44.272Z,32.85
2018-08-04T11:13:12.309Z,32.97
2018-08-04T11:15:40.343Z,33.48
2018-08-04T11:18:08.417Z,32.56
2018-08-04T11:20:36.425Z,33.16
2018-08-04T11:23:04.968Z,32.03
2018-08-04T11:25:33.004Z,33.20
2018-08-04T11:28:01.829Z,32.41
2018-08-04T11:30:29.856Z,32.09
2018-08-04T11:32:57.888Z,32.77
2018-08-04T11:35:25.921Z,32.70
2018-08-04T11:37:53.953Z,32.53
2018-08-04T11:40:21.981Z,31.92
2018-08-04T11:42:49.997Z,31.90
2018-08-04T11:45:18.042Z,31.86
2018-08-04T11:47:46.061Z,31.69
2018-08-04T11:50:14.085Z,30.68
2018-08-04T11:52:42.103Z,31.22
2018-08-04T11:55:10.130Z,30.43
2018-08-04T11:57:38.158Z,31.03
2018-08-04T12:00:06.349Z,30.78
2018-08-04T12:02:34.367Z,31.67
2018-08-04T12:05:02.375Z,31.38
2018-08-04T12:07:30.417Z,32.03
2018-08-04T12:09:58.463Z,30.95
2018-08-04T12:12:26.480Z,30.50
2018-08-04T12:14:54.507Z,31.14
2018-08-04T12:17:22.848Z,30.32
2018-08-04T12:19:50.860Z,30.52
2018-08-04T12:22:18.885Z,30.03
2018-08-04T12:24:51.080Z,30.85
2018-08-04T12:27:19.106Z,31.83
2018-08-04T12:29:47.126Z,30.94
2018-08-04T12:32:15.165Z,31.09
2018-08-04T12:34:43.183Z,31.12
2018-08-04T12:37:11.213Z,31.98
2018-08-04T12:39:39.243Z,31.79
2018-08-04T12:42:07.269Z,31.72
2018-08-04T12:44:35.281Z,30.69
2018-08-04T12:47:03.336Z,31.17
2018-08-04T12:49:31.349Z,31.35
2018-08-04T12:51:59.366Z,30.85
2018-08-04T12:54:27.398Z,30.83
2018-08-04T12:56:55.388Z,31.23
2018-08-04T12:59:23.644Z,30.81
2018-08-04T13:01:51.657Z,31.63
2018-08-04T13:04:19.665Z,30.77
2018-08-04T13:06:47.684Z,31.50
2018-08-04T13:09:15.698Z,31.05
2018-08-04T13:11:43.708Z,31.51
2018-08-04T13:14:11.728Z,30.88
2018-08-04T13:16:39.736Z,30.25
2018-08-04T13:19:07.752Z,30.78
2018-08-04T13:21:35.789Z,31.13
2018-08-04T13:24:03.833Z,30.67
2018-08-04T13:26:31.848Z,32.10
2018-08-04T13:28:59.876Z,32.20
2018-08-04T13:31:27.904Z,31.31
2018-08-04T13:33:55.920Z,31.21
2018-08-04T13:36:23.955Z,31.94
2018-08-04T13:38:51.961Z,31.21
2018-08-04T13:41:19.989Z,30.49
2018-08-04T13:43:48.004Z,30.90
2018-08-04T13:46:16.035Z,30.96
2018-08-04T13:48:44.053Z,30.34
2018-08-04T13:51:12.098Z,30.51
2018-08-04T13:53:40.125Z,30.26
2018-08-04T13:56:08.141Z,30.44
2018-08-04T13:58:36.254Z,31.85
2018-08-04T14:01:04.637Z,31.83
2018-08-04T14:03:32.734Z,32.13
2018-08-04T14:06:00.849Z,32.18
2018-08-04T14:08:28.842Z,31.96
2018-08-04T14:10:56.861Z,32.87
2018-08-04T14:13:25.137Z,32.21
2018-08-04T14:15:53.153Z,31.31
2018-08-04T14:18:21.197Z,32.96
2018-08-04T14:20:49.240Z,32.38
2018-08-04T14:23:17.240Z,32.72
2018-08-04T14:25:45.261Z,33.66
2018-08-04T14:28:13.324Z,33.77
2018-08-04T14:30:41.336Z,33.45
2018-08-04T14:33:09.365Z,34.10
2018-08-04T14:35:37.393Z,34.12
2018-08-04T14:38:05.415Z,34.41
2018-08-04T14:40:33.448Z,35.84
2018-08-04T14:43:01.501Z,35.16
2018-08-04T14:45:29.524Z,36.08
2018-08-04T14:47:57.563Z,36.20
2018-08-04T14:50:25.576Z,36.36
2018-08-04T14:52:53.613Z,38.15
2018-08-04T14:55:21.756Z,37.60
2018-08-04T14:57:49.792Z,37.08
2018-08-04T15:00:17.819Z,37.45
2018-08-04T15:02:45.832Z,37.67
2018-08-04T15:05:13.868Z,38.34
2018-08-04T15:07:41.880Z,38.05
2018-08-04T15:10:10.981Z,37.75
2018-08-04T15:12:39.015Z,37.72
2018-08-04T15:15:07.385Z,38.40
2018-08-04T15:17:35.384Z,38.43
2018-08-04T15:20:03.657Z,38.16
2018-08-04T15:22:31.684Z,38.63
2018-08-04T15:24:59.846Z,39.39
2018-08-04T15:27:27.872Z,38.91
2018-08-04T15:29:55.900Z,39.71
2018-08-04T15:32:23.941Z,39.06
2018-08-04T15:34:51.945Z,39.44
2018-08-04T15:37:20.961Z,39.00
2018-08-04T15:39:48.972Z,39.46
2018-08-04T15:42:16.985Z,40.45
2018-08-04T15:44:47.868Z,39.24
2018-08-04T15:47:15.885Z,38.92
2018-08-04T15:49:43.908Z,38.78
2018-08-04T15:52:11.948Z,39.65
2018-08-04T15:54:39.961Z,39.19
2018-08-04T15:57:08.134Z,40.22
2018-08-04T15:59:36.483Z,39.55
2018-08-04T16:02:04.867Z,40.55
2018-08-04T16:04:32.893Z,40.30
2018-08-04T16:07:00.918Z,40.32
2018-08-04T16:09:28.956Z,40.21
2018-08-04T16:11:56.992Z,40.47
2018-08-04T16:14:25.046Z,39.75
2018-08-04T16:16:53.525Z,39.99
2018-08-04T16:19:21.512Z,39.38
2018-08-04T16:21:49.540Z,41.07
2018-08-04T16:24:17.619Z,40.52
2018-08-04T16:26:45.592Z,40.89
2018-08-04T16:29:13.631Z,41.63
2018-08-04T16:31:41.661Z,41.85
2018-08-04T16:34:09.682Z,40.88
2018-08-04T16:36:37.724Z,41.57
2018-08-04T16:39:08.021Z,42.03
2018-08-04T16:41:36.178Z,40.82
2018-08-04T16:44:04.188Z,41.46
2018-08-04T16:46:32.198Z,41.47
2018-08-04T16:49:00.220Z,42.15
2018-08-04T16:51:28.274Z,42.40
2018-08-04T16:53:56.301Z,43.48
2018-08-04T16:56:24.333Z,42.33
2018-08-04T16:58:52.587Z,43.49
2018-08-04T17:01:20.735Z,43.22
2018-08-04T17:03:48.781Z,43.19
2018-08-04T17:06:16.810Z,43.15
2018-08-04T17:08:44.841Z,44.78
2018-08-04T17:11:12.910Z,44.57
2018-08-04T17:13:40.977Z,43.60
2018-08-04T17:16:09.002Z,44.35
2018-08-04T17:18:37.016Z,44.84
2018-08-04T17:21:05.074Z,45.01
2018-08-04T17:23:33.078Z,44.81
2018-08-04T17:26:01.129Z,45.62
2018-08-04T17:28:29.186Z,45.05
2018-08-04T17:30:57.204Z,44.75
2018-08-04T17:33:25.286Z,44.81
2018-08-04T17:35:53.538Z,44.86
2018-08-04T17:38:21.558Z,45.56
2018-08-04T17:40:49.567Z,45.59
2018-08-04T17:43:17.593Z,44.97
2018-08-04T17:45:45.607Z,45.62
2018-08-04T17:48:13.631Z,45.55
2018-08-04T17:50:41.652Z,45.54
